Add date Part number Description Manufacture PDF
12-17-2017 X24F016 APPLICATION NOTE A V A I LABLE AN76 Xicor X24F016 datasheet
12-17-2017 RMD1S RMD1S THRU RMD7S MINIATURE GLASS P Hornby RMD1S datasheet
12-17-2017 RMD2S RMD1S THRU RMD7S MINIATURE GLASS P Hornby RMD2S datasheet
12-17-2017 CS4312U CS4300U Series (Low Current) Ultra- High Voltage Power Solutions CS4312U datasheet
12-17-2017 CS4308U CS4300U Series (Low Current) Ultra- High Voltage Power Solutions CS4308U datasheet
12-17-2017 CS4310U CS4300U Series (Low Current) Ultra- High Voltage Power Solutions CS4310U datasheet
12-17-2017 R1500F R1200F THRU HIGH VOLTAGE SILICON MIC R1500F datasheet
12-17-2017 R1200F R1200F THRU HIGH VOLTAGE SILICON MIC R1200F datasheet
12-17-2017 R2000F R1200F THRU R2000F DO-41 DO-15 0 MDD R2000F datasheet
12-17-2017 R1800F R1200F THRU R2000F DO-41 DO-15 0 MDD R1800F datasheet
12-17-2017 R1500F R1200F THRU R2000F DO-41 DO-15 0 MDD R1500F datasheet
12-17-2017 R1200F R1200F THRU R2000F DO-41 DO-15 0 MDD R1200F datasheet
12-17-2017 R2000F R1200F THRU R2000F HIGH VOLTAGE FA Hornby R2000F datasheet
12-17-2017 R1800F R1200F THRU R2000F HIGH VOLTAGE FA Hornby R1800F datasheet
12-17-2017 R2500 R2500 THRU R5000 HIGH VOLTAGE SILI Hornby R2500 datasheet
12-17-2017 R2000 R1200 THRU R2000 HIGH VOLTAGE SILIC SEMTECH R2000 datasheet
12-17-2017 R1800 R1200 THRU R2000 HIGH VOLTAGE SILIC SEMTECH R1800 datasheet
12-17-2017 R1200 R1200 THRU R2000 HIGH VOLTAGE SILIC SEMTECH R1200 datasheet
12-17-2017 R1500 R1200 THRU R2000 HIGH VOLTAGE SILIC SEMTECH R1500 datasheet
12-17-2017 R4000 DO-41 DO-15 SEP ELECTRONIC CORP. SEP ELECTRONIC R4000 datasheet
12-17-2017 R5000 DO-41 DO-15 SEP ELECTRONIC CORP. SEP ELECTRONIC R5000 datasheet
12-17-2017 R3000 DO-41 DO-15 SEP ELECTRONIC CORP. SEP ELECTRONIC R3000 datasheet
12-17-2017 R2500 DO-41 DO-15 SEP ELECTRONIC CORP. SEP ELECTRONIC R2500 datasheet
12-17-2017 R2000 DO-41 DO-15 SEP ELECTRONIC CORP. SEP ELECTRONIC R2000 datasheet
12-17-2017 R1800 DO-41 DO-15 SEP ELECTRONIC CORP. SEP ELECTRONIC R1800 datasheet
12-17-2017 R1500 DO-41 DO-15 SEP ELECTRONIC CORP. SEP ELECTRONIC R1500 datasheet
12-17-2017 R1200 DO-41 DO-15 SEP ELECTRONIC CORP. SEP ELECTRONIC R1200 datasheet
12-17-2017 R5000F HIGH VOLTAGE RECTIGIERS FEATURES HY R5000F datasheet
12-17-2017 R3000F HIGH VOLTAGE RECTIGIERS FEATURES HY R3000F datasheet
12-17-2017 R4000F HIGH VOLTAGE RECTIGIERS FEATURES HY R4000F datasheet
12-17-2017 R5000 HIGH VOLTAGE RECTIGIERS FEATURES HY R5000 datasheet
12-17-2017 R1200F HIGH VOLTAGE RECTIGIERS FEATURES HY R1200F datasheet
12-17-2017 R1500F HIGH VOLTAGE RECTIGIERS FEATURES HY R1500F datasheet
12-17-2017 R1800F HIGH VOLTAGE RECTIGIERS FEATURES HY R1800F datasheet
12-17-2017 R2000F HIGH VOLTAGE RECTIGIERS FEATURES HY R2000F datasheet
12-17-2017 R2500F HIGH VOLTAGE RECTIGIERS FEATURES HY R2500F datasheet
12-17-2017 R3000 HIGH VOLTAGE RECTIGIERS FEATURES HY R3000 datasheet
12-17-2017 R4000 HIGH VOLTAGE RECTIGIERS FEATURES HY R4000 datasheet
12-17-2017 R2500 HIGH VOLTAGE RECTIGIERS FEATURES HY R2500 datasheet
12-17-2017 R2000 HIGH VOLTAGE RECTIGIERS FEATURES HY R2000 datasheet
12-17-2017 R1800 HIGH VOLTAGE RECTIGIERS FEATURES HY R1800 datasheet
12-17-2017 R1500 HIGH VOLTAGE RECTIGIERS FEATURES HY R1500 datasheet
12-17-2017 R1200 HIGH VOLTAGE RECTIGIERS FEATURES HY R1200 datasheet
12-17-2017 CD214A-R1600 *RoHS COMPLIANT Features RoHS comp Bourns Electronic CD214A-R1600 datasheet
12-17-2017 CD214A-R1400 *RoHS COMPLIANT Features RoHS comp Bourns Electronic CD214A-R1400 datasheet
12-17-2017 CD214A-R1200 *RoHS COMPLIANT Features RoHS comp Bourns Electronic CD214A-R1200 datasheet
12-17-2017 CD214A-R1100 *RoHS COMPLIANT Features RoHS comp Bourns Electronic CD214A-R1100 datasheet
12-17-2017 CD214A-R150 *RoHS COMPLIANT Features RoHS comp Bourns Electronic CD214A-R150 datasheet
12-17-2017 R2000 HIGH VOLTAGE RECTIFIER R1200 Thru R RFE R2000 datasheet
12-17-2017 R1800 HIGH VOLTAGE RECTIFIER R1200 Thru R RFE R1800 datasheet
12-17-2017 R1500 HIGH VOLTAGE RECTIFIER R1200 Thru R RFE R1500 datasheet
12-17-2017 R1200 HIGH VOLTAGE RECTIFIER R1200 Thru R RFE R1200 datasheet
12-17-2017 R2000 R1200 THRU R2000 DO-41 0.107 (2.7 MDD R2000 datasheet
12-17-2017 R1800 R1200 THRU R2000 DO-41 0.107 (2.7 MDD R1800 datasheet
12-17-2017 R1500 R1200 THRU R2000 DO-41 0.107 (2.7 MDD R1500 datasheet
12-17-2017 R1200 R1200 THRU R2000 DO-41 0.107 (2.7 MDD R1200 datasheet
12-17-2017 R5000 R1200 THRU HIGH VOLTAGE SILICON R MIC R5000 datasheet
12-17-2017 R4000 R1200 THRU HIGH VOLTAGE SILICON R MIC R4000 datasheet
12-17-2017 R3000 R1200 THRU HIGH VOLTAGE SILICON R MIC R3000 datasheet
12-17-2017 R2500 R1200 THRU HIGH VOLTAGE SILICON R MIC R2500 datasheet
12-17-2017 R2000 R1200 THRU HIGH VOLTAGE SILICON R MIC R2000 datasheet
12-17-2017 R1800 R1200 THRU HIGH VOLTAGE SILICON R MIC R1800 datasheet
12-17-2017 R1500 R1200 THRU HIGH VOLTAGE SILICON R MIC R1500 datasheet
12-17-2017 R1200 R1200 THRU HIGH VOLTAGE SILICON R MIC R1200 datasheet
12-17-2017 R2000 R1200 THRU R2000 HIGH VOLTAGE SILI Hornby R2000 datasheet
12-17-2017 R1800 R1200 THRU R2000 HIGH VOLTAGE SILI Hornby R1800 datasheet
12-17-2017 R1500 R1200 THRU R2000 HIGH VOLTAGE SILI Hornby R1500 datasheet
12-17-2017 X20C05 APPLICATION NOTE AVA I L A B L E X2 Xicor X20C05 datasheet
12-17-2017 X20C16 APPLICATION NOTE AVA I L A B L E X2 Xicor X20C16 datasheet
12-17-2017 R1200 R1200 THRU R2000 HIGH VOLTAGE SILI Hornby R1200 datasheet
12-17-2017 R1500F R1200F THRU R2000F HIGH VOLTAGE FA Hornby R1500F datasheet
12-17-2017 R1200F R1200F THRU R2000F HIGH VOLTAGE FA Hornby R1200F datasheet
12-17-2017 RL1N1800F RL1N1000F THRU RL1N1800F PHOTOFLAS Hornby RL1N1800F datasheet
12-17-2017 RL1N1600F RL1N1000F THRU RL1N1800F PHOTOFLAS Hornby RL1N1600F datasheet
12-17-2017 RL1N1400F RL1N1000F THRU RL1N1800F PHOTOFLAS Hornby RL1N1400F datasheet
12-17-2017 RL1N1200F RL1N1000F THRU RL1N1800F PHOTOFLAS Hornby RL1N1200F datasheet
12-17-2017 RL1N1000F RL1N1000F THRU RL1N1800F PHOTOFLAS Hornby RL1N1000F datasheet
12-17-2017 R5000 R2500 thru R5000 High Voltage Gener LRC R5000 datasheet
12-17-2017 R4000 R2500 thru R5000 High Voltage Gener LRC R4000 datasheet
12-17-2017 R3000 R2500 thru R5000 High Voltage Gener LRC R3000 datasheet
12-17-2017 R5000 R2500 THRU R5000 HIGH VOLTAGE SILIC SEMTECH R5000 datasheet
12-17-2017 R2500 R2500 thru R5000 High Voltage Gener LRC R2500 datasheet
12-17-2017 R4000 R2500 THRU R5000 HIGH VOLTAGE SILIC SEMTECH R4000 datasheet
12-17-2017 R3000 R2500 THRU R5000 HIGH VOLTAGE SILIC SEMTECH R3000 datasheet
12-17-2017 R6000 R2500-R6000 High Voltage Rectifiers LGE R6000 datasheet
12-17-2017 R2500 R2500 THRU R5000 HIGH VOLTAGE SILIC SEMTECH R2500 datasheet
12-17-2017 R3000 R2500 THRU R5000 DO-41 0.107 (2.7 MDD R3000 datasheet
12-17-2017 R4000 R2500 THRU R5000 DO-41 0.107 (2.7 MDD R4000 datasheet
12-17-2017 R5000 R2500 THRU R5000 DO-41 0.107 (2.7 MDD R5000 datasheet
12-17-2017 R2500 R2500 THRU R5000 DO-41 0.107 (2.7 MDD R2500 datasheet
12-17-2017 R5000 R2500 THRU R5000 HIGH VOLTAGE SILI Hornby R5000 datasheet
12-17-2017 R3000 R2500 THRU R5000 HIGH VOLTAGE SILI Hornby R3000 datasheet
12-17-2017 R4000 R2500 THRU R5000 HIGH VOLTAGE SILI Hornby R4000 datasheet
12-17-2017 R2500F R1200F THRU HIGH VOLTAGE SILICON MIC R2500F datasheet
12-17-2017 R3000F R1200F THRU HIGH VOLTAGE SILICON MIC R3000F datasheet
12-17-2017 R4000F R1200F THRU HIGH VOLTAGE SILICON MIC R4000F datasheet
12-17-2017 R5000F R1200F THRU HIGH VOLTAGE SILICON MIC R5000F datasheet
12-17-2017 R1200F MEI Lead Free RoHS Compliant HI MEI R1200F datasheet
12-17-2017 R1500F MEI Lead Free RoHS Compliant HI MEI R1500F datasheet
12-17-2017 R1800F MEI Lead Free RoHS Compliant HI MEI R1800F datasheet
12-17-2017 R2000F MEI Lead Free RoHS Compliant HI MEI R2000F datasheet
12-17-2017 R2500F MEI Lead Free RoHS Compliant HI MEI R2500F datasheet
12-17-2017 R3000F MEI Lead Free RoHS Compliant HI MEI R3000F datasheet
12-17-2017 R4000F MEI Lead Free RoHS Compliant HI MEI R4000F datasheet
12-17-2017 R5000F MEI Lead Free RoHS Compliant HI MEI R5000F datasheet
12-17-2017 R1200F BL GALAXY ELECTRICAL R1200F --- R2 GALAXY ELECTRICAL R1200F datasheet
12-17-2017 R1500F BL GALAXY ELECTRICAL R1200F --- R2 GALAXY ELECTRICAL R1500F datasheet
12-17-2017 R1800F BL GALAXY ELECTRICAL R1200F --- R2 GALAXY ELECTRICAL R1800F datasheet
12-17-2017 R2000F BL GALAXY ELECTRICAL R1200F --- R2 GALAXY ELECTRICAL R2000F datasheet
12-17-2017 R2500F R2500F THRU R5000F HIGH VOLTAGE FA Hornby R2500F datasheet
12-17-2017 R3000F R2500F THRU R5000F HIGH VOLTAGE FA Hornby R3000F datasheet
12-17-2017 R4000F R2500F THRU R5000F HIGH VOLTAGE FA Hornby R4000F datasheet
12-17-2017 R5000F R2500F THRU R5000F HIGH VOLTAGE FA Hornby R5000F datasheet
12-17-2017 R2500F R2500F THRU R5000F DO-41 0.107 (2 MDD R2500F datasheet
12-17-2017 R3000F R2500F THRU R5000F DO-41 0.107 (2 MDD R3000F datasheet
12-17-2017 R4000F R2500F THRU R5000F DO-41 0.107 (2 MDD R4000F datasheet
12-17-2017 R5000F R2500F THRU R5000F DO-41 0.107 (2 MDD R5000F datasheet
12-17-2017 R2500F BL GALAXY ELECTRICAL HIGH VOLTAGE R GALAXY ELECTRICAL R2500F datasheet
12-17-2017 R3000F BL GALAXY ELECTRICAL HIGH VOLTAGE R GALAXY ELECTRICAL R3000F datasheet
12-17-2017 R4000F BL GALAXY ELECTRICAL HIGH VOLTAGE R GALAXY ELECTRICAL R4000F datasheet
12-17-2017 R5000F BL GALAXY ELECTRICAL HIGH VOLTAGE R GALAXY ELECTRICAL R5000F datasheet
12-17-2017 MD7 RECTRON SEMICONDUCTOR TECHNICAL SPE Rectron Semiconductor MD7 datasheet
12-17-2017 MD6 RECTRON SEMICONDUCTOR TECHNICAL SPE Rectron Semiconductor MD6 datasheet
12-17-2017 MD5 RECTRON SEMICONDUCTOR TECHNICAL SPE Rectron Semiconductor MD5 datasheet
12-17-2017 MD2 RECTRON SEMICONDUCTOR TECHNICAL SPE Rectron Semiconductor MD2 datasheet
12-17-2017 MD4 RECTRON SEMICONDUCTOR TECHNICAL SPE Rectron Semiconductor MD4 datasheet
12-17-2017 MD3 RECTRON SEMICONDUCTOR TECHNICAL SPE Rectron Semiconductor MD3 datasheet
12-17-2017 MD1 RECTRON SEMICONDUCTOR TECHNICAL SPE Rectron Semiconductor MD1 datasheet
12-17-2017 MD1-1280-22-E PROTON-ELECTROTEX RUSSIA Electrica Proton-Electrotex MD1-1280-22-E datasheet
12-17-2017 MD7M MD1M THRU MD7M MINIATURE GLASS PAS Hornby MD7M datasheet
12-17-2017 MD6M MD1M THRU MD7M MINIATURE GLASS PAS Hornby MD6M datasheet
12-17-2017 MD5M MD1M THRU MD7M MINIATURE GLASS PAS Hornby MD5M datasheet
12-17-2017 MD4M MD1M THRU MD7M MINIATURE GLASS PAS Hornby MD4M datasheet
12-17-2017 MD3M MD1M THRU MD7M MINIATURE GLASS PAS Hornby MD3M datasheet
12-17-2017 MD2M MD1M THRU MD7M MINIATURE GLASS PAS Hornby MD2M datasheet
12-17-2017 MD1M MD1M THRU MD7M MINIATURE GLASS PAS Hornby MD1M datasheet
12-17-2017 MB10S MB005S - MB10S PRV : 50 - 1000 Volt Bruckewell MB10S datasheet
12-17-2017 MB08S MB005S - MB10S PRV : 50 - 1000 Volt Bruckewell MB08S datasheet
12-17-2017 MB06S MB005S - MB10S PRV : 50 - 1000 Volt Bruckewell MB06S datasheet
12-17-2017 MB04S MB005S - MB10S PRV : 50 - 1000 Volt Bruckewell MB04S datasheet
12-17-2017 MB02S MB005S - MB10S PRV : 50 - 1000 Volt Bruckewell MB02S datasheet
12-17-2017 MB01S MB005S - MB10S PRV : 50 - 1000 Volt Bruckewell MB01S datasheet
12-17-2017 MB8S FRONTIER ELECTRONICS CO., LTD. 0.8A Frontier Electronics MB8S datasheet
12-17-2017 MB10S FRONTIER ELECTRONICS CO., LTD. 0.8A Frontier Electronics MB10S datasheet
12-17-2017 MB005S MB005S - MB10S PRV : 50 - 1000 Volt Bruckewell MB005S datasheet
12-17-2017 MB6S FRONTIER ELECTRONICS CO., LTD. 0.8A Frontier Electronics MB6S datasheet
12-17-2017 MB4S FRONTIER ELECTRONICS CO., LTD. 0.8A Frontier Electronics MB4S datasheet
12-17-2017 MB2S FRONTIER ELECTRONICS CO., LTD. 0.8A Frontier Electronics MB2S datasheet
12-17-2017 MB1S FRONTIER ELECTRONICS CO., LTD. 0.8A Frontier Electronics MB1S datasheet
12-17-2017 MB005S FRONTIER ELECTRONICS CO., LTD. 0.8A Frontier Electronics MB005S datasheet
12-17-2017 MD10S FRONTIER ELECTRONICS CO., LTD. 0.8A Frontier Electronics MD10S datasheet
12-17-2017 MD8S FRONTIER ELECTRONICS CO., LTD. 0.8A Frontier Electronics MD8S datasheet
12-17-2017 MD6S FRONTIER ELECTRONICS CO., LTD. 0.8A Frontier Electronics MD6S datasheet
12-17-2017 MD4S FRONTIER ELECTRONICS CO., LTD. 0.8A Frontier Electronics MD4S datasheet
12-17-2017 MD2S FRONTIER ELECTRONICS CO., LTD. 0.8A Frontier Electronics MD2S datasheet
12-17-2017 MD1S FRONTIER ELECTRONICS CO., LTD. 0.8A Frontier Electronics MD1S datasheet
12-17-2017 MD005S FRONTIER ELECTRONICS CO., LTD. 0.8A Frontier Electronics MD005S datasheet
12-17-2017 MD3S MD1S thru MD7S 表面安装桥式 SMD MD3S datasheet
12-17-2017 MD4S MD1S thru MD7S 表面安装桥式 SMD MD4S datasheet
12-17-2017 MD5S MD1S thru MD7S 表面安装桥式 SMD MD5S datasheet
12-17-2017 MD6S MD1S thru MD7S 表面安装桥式 SMD MD6S datasheet
12-17-2017 MD7S MD1S thru MD7S 表面安装桥式 SMD MD7S datasheet
12-17-2017 MD2S MD1S thru MD7S 表面安装桥式 SMD MD2S datasheet
12-17-2017 MD4S E-DA SEMICONDUCTOR RoHS Compliant E-DA SEMICONDUCTOR MD4S datasheet
12-17-2017 MD5S E-DA SEMICONDUCTOR RoHS Compliant E-DA SEMICONDUCTOR MD5S datasheet
12-17-2017 MD8S E-DA SEMICONDUCTOR RoHS Compliant E-DA SEMICONDUCTOR MD8S datasheet
12-17-2017 MD10S E-DA SEMICONDUCTOR RoHS Compliant E-DA SEMICONDUCTOR MD10S datasheet
12-17-2017 MD1S MD1S thru MD7S 表面安装桥式 SMD MD1S datasheet
12-17-2017 MD1S E-DA SEMICONDUCTOR RoHS Compliant E-DA SEMICONDUCTOR MD1S datasheet
12-17-2017 MD2S E-DA SEMICONDUCTOR RoHS Compliant E-DA SEMICONDUCTOR MD2S datasheet
12-17-2017 MD7S MD1S THRU MD7S Miniature Glass Pass SEMTECH MD7S datasheet
12-17-2017 MD6S MD1S THRU MD7S Miniature Glass Pass SEMTECH MD6S datasheet
12-17-2017 MD5S MD1S THRU MD7S Miniature Glass Pass SEMTECH MD5S datasheet
12-17-2017 MD4S MD1S THRU MD7S Miniature Glass Pass SEMTECH MD4S datasheet
12-17-2017 MD3S MD1S THRU MD7S Miniature Glass Pass SEMTECH MD3S datasheet
12-17-2017 MD2S MD1S THRU MD7S Miniature Glass Pass SEMTECH MD2S datasheet
12-17-2017 MD1S MD1S THRU MD7S Miniature Glass Pass SEMTECH MD1S datasheet
12-17-2017 MD3S MD1S THRU MD7S SINGLE PHASE 0.8 AM GW MD3S datasheet
12-17-2017 MD4S MD1S THRU MD7S SINGLE PHASE 0.8 AM GW MD4S datasheet
12-17-2017 MD6S MD1S THRU MD7S SINGLE PHASE 0.8 AM GW MD6S datasheet
12-17-2017 MD7S MD1S THRU MD7S SINGLE PHASE 0.8 AM GW MD7S datasheet
12-17-2017 MD2S MD1S THRU MD7S SINGLE PHASE 0.8 AM GW MD2S datasheet
12-17-2017 MD1S MD1S THRU MD7S SINGLE PHASE 0.8 AM GW MD1S datasheet
12-17-2017 MD7S Elektronische Bauelemente MD1S ~ M SeCoS MD7S datasheet
12-17-2017 MD6S Elektronische Bauelemente MD1S ~ M SeCoS MD6S datasheet
12-17-2017 MD5S Elektronische Bauelemente MD1S ~ M SeCoS MD5S datasheet
12-17-2017 MD4S Elektronische Bauelemente MD1S ~ M SeCoS MD4S datasheet
12-17-2017 MD3S Elektronische Bauelemente MD1S ~ M SeCoS MD3S datasheet
12-17-2017 MD2S Elektronische Bauelemente MD1S ~ M SeCoS MD2S datasheet
12-17-2017 MD1S Elektronische Bauelemente MD1S ~ M SeCoS MD1S datasheet
12-17-2017 MD7S MD1S THRU MD7S MINIATURE GLASS PAS Hornby MD7S datasheet
12-17-2017 MD4S MD1S THRU MD7S MINIATURE GLASS PAS Hornby MD4S datasheet
12-17-2017 MD5S MD1S THRU MD7S MINIATURE GLASS PAS Hornby MD5S datasheet
12-17-2017 MD6S MD1S THRU MD7S MINIATURE GLASS PAS Hornby MD6S datasheet
12-17-2017 MD3S MD1S THRU MD7S MINIATURE GLASS PAS Hornby MD3S datasheet
12-17-2017 RMD7M RMD1M THRU RMD7M MINIATURE GLASS P Hornby RMD7M datasheet
12-17-2017 MD1S MD1S THRU MD7S MINIATURE GLASS PAS Hornby MD1S datasheet
12-17-2017 MD2S MD1S THRU MD7S MINIATURE GLASS PAS Hornby MD2S datasheet
12-17-2017 RMD6M RMD1M THRU RMD7M MINIATURE GLASS P Hornby RMD6M datasheet
12-17-2017 RMD5S F.E.C. Semiconductor VI. Bridge Re FEC Semiconductor RMD5S datasheet
12-17-2017 RMD5M RMD1M THRU RMD7M MINIATURE GLASS P Hornby RMD5M datasheet
12-17-2017 RMD4M RMD1M THRU RMD7M MINIATURE GLASS P Hornby RMD4M datasheet
12-17-2017 RMD3M RMD1M THRU RMD7M MINIATURE GLASS P Hornby RMD3M datasheet
12-17-2017 RMD2M RMD1M THRU RMD7M MINIATURE GLASS P Hornby RMD2M datasheet
12-17-2017 RMD1M RMD1M THRU RMD7M MINIATURE GLASS P Hornby RMD1M datasheet
12-17-2017 RMD7S F.E.C. Semiconductor VI. Bridge Re FEC Semiconductor RMD7S datasheet
12-17-2017 RMD6S F.E.C. Semiconductor VI. Bridge Re FEC Semiconductor RMD6S datasheet
12-17-2017 X25F008 APPLICATION NOTE A V A I LABLE AN61 Xicor X25F008 datasheet
12-17-2017 X25F016 APPLICATION NOTE A V A I LABLE AN61 Xicor X25F016 datasheet
12-17-2017 X25F032 APPLICATION NOTE A V A I LABLE AN61 Xicor X25F032 datasheet
12-17-2017 X25F064 APPLICATION NOTE A V A I LABLE AN61 Xicor X25F064 datasheet
12-17-2017 SGFM168C-D2 SMD Super Fast Rectifiers Formosa Formosa MS SGFM168C-D2 datasheet
12-17-2017 SGFM166C-D2 SMD Super Fast Rectifiers Formosa Formosa MS SGFM166C-D2 datasheet
12-17-2017 SGFM164C-D2 SMD Super Fast Rectifiers Formosa Formosa MS SGFM164C-D2 datasheet
12-17-2017 SGFM162C-D2 SMD Super Fast Rectifiers Formosa Formosa MS SGFM162C-D2 datasheet
12-17-2017 SGFM161C-D2 SMD Super Fast Rectifiers Formosa Formosa MS SGFM161C-D2 datasheet
12-17-2017 SF166C SUPER FAST GLASS PASSIVATED RECTIFI MIC SF166C datasheet
12-17-2017 SF165C SUPER FAST GLASS PASSIVATED RECTIFI MIC SF165C datasheet
12-17-2017 SF164C SUPER FAST GLASS PASSIVATED RECTIFI MIC SF164C datasheet
12-17-2017 SF163C SUPER FAST GLASS PASSIVATED RECTIFI MIC SF163C datasheet
12-17-2017 SF162C SUPER FAST GLASS PASSIVATED RECTIFI MIC SF162C datasheet
12-17-2017 SF161C SUPER FAST GLASS PASSIVATED RECTIFI MIC SF161C datasheet
12-17-2017 SF167C GLASS PASSIVATED SUPER FAST RECTIFI Rectron Semiconductor SF167C datasheet
12-17-2017 SF167CT SF161CT THRU SF167CT 16.0 AMP SUPE GW SF167CT datasheet
12-17-2017 SF166CT SF161CT THRU SF167CT 16.0 AMP SUPE GW SF166CT datasheet
12-17-2017 SF165CT SF161CT THRU SF167CT 16.0 AMP SUPE GW SF165CT datasheet
12-17-2017 SF164CT SF161CT THRU SF167CT 16.0 AMP SUPE GW SF164CT datasheet
12-17-2017 SF163CT SF161CT THRU SF167CT 16.0 AMP SUPE GW SF163CT datasheet
12-17-2017 SF162CT SF161CT THRU SF167CT 16.0 AMP SUPE GW SF162CT datasheet
12-17-2017 SF161CT SF161CT THRU SF167CT 16.0 AMP SUPE GW SF161CT datasheet
12-17-2017 SF168CT SF161CT THRU SF168CT GLASS PASSIVA Hornby SF168CT datasheet
12-17-2017 SF167CT SF161CT THRU SF168CT GLASS PASSIVA Hornby SF167CT datasheet
12-17-2017 SF166CT SF161CT THRU SF168CT GLASS PASSIVA Hornby SF166CT datasheet
12-17-2017 SF165CT SF161CT THRU SF168CT GLASS PASSIVA Hornby SF165CT datasheet
12-17-2017 SF164CT SF161CT THRU SF168CT GLASS PASSIVA Hornby SF164CT datasheet
12-17-2017 SF163CT SF161CT THRU SF168CT GLASS PASSIVA Hornby SF163CT datasheet
12-17-2017 SF162CT SF161CT THRU SF168CT GLASS PASSIVA Hornby SF162CT datasheet
12-17-2017 SF161CT SF161CT THRU SF168CT GLASS PASSIVA Hornby SF161CT datasheet
12-17-2017 SF166PT SF161PT THRU SF166PT GLASS PASSIVA Hornby SF166PT datasheet
12-17-2017 SF165PT SF161PT THRU SF166PT GLASS PASSIVA Hornby SF165PT datasheet
12-17-2017 SF164PT SF161PT THRU SF166PT GLASS PASSIVA Hornby SF164PT datasheet
12-17-2017 SF163PT SF161PT THRU SF166PT GLASS PASSIVA Hornby SF163PT datasheet
12-17-2017 SF162PT SF161PT THRU SF166PT GLASS PASSIVA Hornby SF162PT datasheet
12-17-2017 SF161PT SF161PT THRU SF166PT GLASS PASSIVA Hornby SF161PT datasheet
12-17-2017 SF307 SIYU R 塑封高效率整流二极 SIYU SF307 datasheet
12-17-2017 SF306 SIYU R 塑封高效率整流二极 SIYU SF306 datasheet
12-17-2017 SF305 SIYU R 塑封高效率整流二极 SIYU SF305 datasheet
12-17-2017 SF304 SIYU R 塑封高效率整流二极 SIYU SF304 datasheet
12-17-2017 SF303 SIYU R 塑封高效率整流二极 SIYU SF303 datasheet
12-17-2017 SF302 SIYU R 塑封高效率整流二极 SIYU SF302 datasheet
12-17-2017 SF301 SIYU R 塑封高效率整流二极 SIYU SF301 datasheet
12-17-2017 SF306PT SF301PT THRU SF306PT GLASS PASSIVA Hornby SF306PT datasheet
12-17-2017 SF305PT SF301PT THRU SF306PT GLASS PASSIVA Hornby SF305PT datasheet
12-17-2017 SF304PT SF301PT THRU SF306PT GLASS PASSIVA Hornby SF304PT datasheet
12-17-2017 SF303PT SF301PT THRU SF306PT GLASS PASSIVA Hornby SF303PT datasheet
12-17-2017 SF302PT SF301PT THRU SF306PT GLASS PASSIVA Hornby SF302PT datasheet
12-17-2017 SF301PT SF301PT THRU SF306PT GLASS PASSIVA Hornby SF301PT datasheet
12-17-2017 CS43130 CS43130 130-dB, 32-Bit High-Perfor Cirrus Logic CS43130 datasheet
12-17-2017 CS4324U CS4300U Series (Low Current) Ultra- High Voltage Power Solutions CS4324U datasheet
12-17-2017 CS4320U CS4300U Series (Low Current) Ultra- High Voltage Power Solutions CS4320U datasheet
12-17-2017 CS4314U CS4300U Series (Low Current) Ultra- High Voltage Power Solutions CS4314U datasheet
12-17-2017 RMD4S F.E.C. Semiconductor VI. Bridge Re FEC Semiconductor RMD4S datasheet
12-17-2017 RMD2S F.E.C. Semiconductor VI. Bridge Re FEC Semiconductor RMD2S datasheet
12-17-2017 RMD3S F.E.C. Semiconductor VI. Bridge Re FEC Semiconductor RMD3S datasheet
12-17-2017 RMD1S F.E.C. Semiconductor VI. Bridge Re FEC Semiconductor RMD1S datasheet
12-17-2017 RMD7S RMD1S THRU RMD7S MINIATURE GLASS P Hornby RMD7S datasheet
12-17-2017 RMD6S RMD1S THRU RMD7S MINIATURE GLASS P Hornby RMD6S datasheet
12-17-2017 RMD4S RMD1S THRU RMD7S MINIATURE GLASS P Hornby RMD4S datasheet
12-17-2017 RMD5S RMD1S THRU RMD7S MINIATURE GLASS P Hornby RMD5S datasheet
12-17-2017 RMD3S RMD1S THRU RMD7S MINIATURE GLASS P Hornby RMD3S datasheet
12-17-2017 XC5202 Product Obsolete or Under Obsolesce Xilinx XC5202 datasheet
12-17-2017 XC5200 Product Obsolete or Under Obsolesce Xilinx XC5200 datasheet
12-17-2017 XC5206 Product Obsolete or Under Obsolesce Xilinx XC5206 datasheet
12-17-2017 XC5204 Product Obsolete or Under Obsolesce Xilinx XC5204 datasheet
12-17-2017 XC5215 Product Obsolete or Under Obsolesce Xilinx XC5215 datasheet
12-17-2017 XC5210 Product Obsolete or Under Obsolesce Xilinx XC5210 datasheet
12-17-2017 AT40K10LV Features • Ultra High Performance ATMEL AT40K10LV datasheet
12-17-2017 AT40K05LV Features • Ultra High Performance ATMEL AT40K05LV datasheet
12-17-2017 AT40K40LV Features • Ultra High Performance ATMEL AT40K40LV datasheet
12-17-2017 AT40K20LV Features • Ultra High Performance ATMEL AT40K20LV datasheet
12-17-2017 CS4303U CS4300U Series (Low Current) Ultra- High Voltage Power Solutions CS4303U datasheet
12-17-2017 CS4302U CS4300U Series (Low Current) Ultra- High Voltage Power Solutions CS4302U datasheet
12-17-2017 CS4304U CS4300U Series (Low Current) Ultra- High Voltage Power Solutions CS4304U datasheet
12-17-2017 R1800F R1200F THRU HIGH VOLTAGE SILICON MIC R1800F datasheet
12-17-2017 R2000F R1200F THRU HIGH VOLTAGE SILICON MIC R2000F datasheet
12-17-2017 X24F032 APPLICATION NOTE A V A I LABLE AN76 Xicor X24F032 datasheet
12-17-2017 X24F064 APPLICATION NOTE A V A I LABLE AN76 Xicor X24F064 datasheet

10-2018    9-2018    8-2018    7-2018    6-2018    5-2018    4-2018    3-2018    2-2018    1-2018
12-2017    11-2017    10-2017    9-2017    8-2017    7-2017    6-2017    5-2017    4-2017    3-2017    2-2017    1-2017
12-2016    11-2016    10-2016    9-2016    8-2016    7-2016    6-2016    5-2016    4-2016    3-2016    2-2016    1-2016
12-2015    11-2015    10-2015    9-2015    8-2015    7-2015    6-2015    5-2015    4-2015    3-2015    2-2015    1-2015
12-2014    11-2014    10-2014    9-2014    8-2014    7-2014    6-2014    5-2014    4-2014    3-2014    2-2014    1-2014
12-2013    11-2013    10-2013    9-2013    8-2013    7-2013    6-2013    5-2013    4-2013    3-2013    2-2013    1-2013
12-2012    11-2012    10-2012    9-2012    8-2012    7-2012    6-2012    5-2012    4-2012    3-2012    2-2012    1-2012
12-2011    11-2011    10-2011    9-2011    8-2011    7-2011    6-2011    5-2011    4-2011    3-2011    2-2011    1-2011
12-2010    11-2010    10-2010    9-2010    8-2010    7-2010    6-2010    5-2010    4-2010    3-2010    2-2010    1-2010


31  30  29  28  27  26  25  24  23  22  21  20  19  18  17  16  15  14  13  12  11  10  09  08  07  06  05  04  03  02  01


The site has been moved : DatasheetsPDF.com
Since 2005 - HOME - Link US - All - Privacy Policy & Contact Us -